sensor_id;sensor_type;location;lat;lon;timestamp;P1;P2;P0
45112;PMS5003;30873;53.908;27.576;2023-07-31T00:00:31;24.8;22;13.9
45112;PMS5003;30873;53.908;27.576;2023-07-31T00:06:01;23.6;20.6;13.6
45112;PMS5003;30873;53.908;27.576;2023-07-31T00:10:25;24.4;22.9;15
45112;PMS5003;30873;53.908;27.576;2023-07-31T00:15:11;26;22.7;14.5
45112;PMS5003;30873;53.908;27.576;2023-07-31T00:20:45;28.3;25.6;16.8
45112;PMS5003;30873;53.908;27.576;2023-07-31T00:25:33;30.2;27.3;18.1
45112;PMS5003;30873;53.908;27.576;2023-07-31T00:31:01;27.8;25;17.1
45112;PMS5003;30873;53.908;27.576;2023-07-31T00:35:31;26.1;24.4;16.8
45112;PMS5003;30873;53.908;27.576;2023-07-31T00:41:01;26.6;24.3;16.6
45112;PMS5003;30873;53.908;27.576;2023-07-31T00:45:31;27;23.9;16.1
45112;PMS5003;30873;53.908;27.576;2023-07-31T00:51:01;25.6;23.6;16.3
45112;PMS5003;30873;53.908;27.576;2023-07-31T00:55:45;26.4;24.6;15.9
45112;PMS5003;30873;53.908;27.576;2023-07-31T01:00:47;26.4;23.7;16.4
45112;PMS5003;30873;53.908;27.576;2023-07-31T01:05:27;27.6;24.9;16.5
45112;PMS5003;30873;53.908;27.576;2023-07-31T01:10:46;29.5;25.8;17.4
45112;PMS5003;30873;53.908;27.576;2023-07-31T01:15:25;27.4;24.7;17.4
45112;PMS5003;30873;53.908;27.576;2023-07-31T01:20:12;28.8;25.7;17.6
45112;PMS5003;30873;53.908;27.576;2023-07-31T01:26:03;28.2;25.3;17.3
45112;PMS5003;30873;53.908;27.576;2023-07-31T01:30:25;28.2;25.9;17.2
45112;PMS5003;30873;53.908;27.576;2023-07-31T01:36:01;29.1;26.3;17.6
45112;PMS5003;30873;53.908;27.576;2023-07-31T01:41:01;28.4;25.9;17.6
45112;PMS5003;30873;53.908;27.576;2023-07-31T01:45:45;29.7;27;17.3
45112;PMS5003;30873;53.908;27.576;2023-07-31T01:50:11;30.3;27;17.4
45112;PMS5003;30873;53.908;27.576;2023-07-31T01:55:47;30.5;27.6;18.4
45112;PMS5003;30873;53.908;27.576;2023-07-31T02:01:01;29.6;27.3;18.2
45112;PMS5003;30873;53.908;27.576;2023-07-31T02:05:45;30.7;27.2;18.4
45112;PMS5003;30873;53.908;27.576;2023-07-31T02:10:25;29;26.2;17.9
45112;PMS5003;30873;53.908;27.576;2023-07-31T02:16:01;35.3;32.4;23.3
45112;PMS5003;30873;53.908;27.576;2023-07-31T02:21:01;34.1;31.1;20.3
45112;PMS5003;30873;53.908;27.576;2023-07-31T02:25:23;34.7;31.9;21.9
45112;PMS5003;30873;53.908;27.576;2023-07-31T02:30:23;32.1;29.2;20.6
45112;PMS5003;30873;53.908;27.576;2023-07-31T02:35:45;32.2;29.3;19.8
45112;PMS5003;30873;53.908;27.576;2023-07-31T02:40:49;29.8;26.9;17.8
45112;PMS5003;30873;53.908;27.576;2023-07-31T02:45:31;32;29;20
45112;PMS5003;30873;53.908;27.576;2023-07-31T02:50:31;33.4;29.5;21.1
45112;PMS5003;30873;53.908;27.576;2023-07-31T02:55:17;34.5;29.9;19.4
45112;PMS5003;30873;53.908;27.576;2023-07-31T03:00:11;31.5;28.3;18.6
45112;PMS5003;30873;53.908;27.576;2023-07-31T03:05:29;30.8;27.2;18
45112;PMS5003;30873;53.908;27.576;2023-07-31T03:11:01;29.4;26.4;18.2
45112;PMS5003;30873;53.908;27.576;2023-07-31T03:15:45;30.9;29;18.3
45112;PMS5003;30873;53.908;27.576;2023-07-31T03:21:01;33.6;30.2;19.9
45112;PMS5003;30873;53.908;27.576;2023-07-31T03:25:31;33.2;30.6;19.8
45112;PMS5003;30873;53.908;27.576;2023-07-31T03:30:11;36.4;31.2;19.6
45112;PMS5003;30873;53.908;27.576;2023-07-31T03:35:29;33.5;30;19.9
45112;PMS5003;30873;53.908;27.576;2023-07-31T03:40:23;34.9;30.6;19.7
45112;PMS5003;30873;53.908;27.576;2023-07-31T03:45:11;36.6;31.7;20.4
45112;PMS5003;30873;53.908;27.576;2023-07-31T03:50:47;35.5;32.1;20.8
45112;PMS5003;30873;53.908;27.576;2023-07-31T03:55:33;36.4;32.4;21.2
45112;PMS5003;30873;53.908;27.576;2023-07-31T04:00:11;35.1;31.8;20.6
45112;PMS5003;30873;53.908;27.576;2023-07-31T04:05:11;34.9;31.7;21.6
45112;PMS5003;30873;53.908;27.576;2023-07-31T04:11:01;35.8;32;21.3
45112;PMS5003;30873;53.908;27.576;2023-07-31T04:16:01;36.3;32.1;21
45112;PMS5003;30873;53.908;27.576;2023-07-31T04:20:31;35.9;31.9;21
45112;PMS5003;30873;53.908;27.576;2023-07-31T04:25:11;35;31.8;20.9
45112;PMS5003;30873;53.908;27.576;2023-07-31T04:31:01;31.9;29.3;19.6
45112;PMS5003;30873;53.908;27.576;2023-07-31T04:35:11;31.7;29;20
45112;PMS5003;30873;53.908;27.576;2023-07-31T04:40:17;31.3;28;19
45112;PMS5003;30873;53.908;27.576;2023-07-31T04:45:57;27.8;26.1;17.6
45112;PMS5003;30873;53.908;27.576;2023-07-31T04:50:47;26.6;24.1;17.1
45112;PMS5003;30873;53.908;27.576;2023-07-31T04:56:01;26.1;24.1;16.8
45112;PMS5003;30873;53.908;27.576;2023-07-31T05:00:25;27;24.3;16.4
45112;PMS5003;30873;53.908;27.576;2023-07-31T05:05:59;27.7;25.5;17.6
45112;PMS5003;30873;53.908;27.576;2023-07-31T05:10:15;25.3;24;16.3
45112;PMS5003;30873;53.908;27.576;2023-07-31T05:15:59;26.7;23.9;15.7
45112;PMS5003;30873;53.908;27.576;2023-07-31T05:20:43;26.4;24.8;17.1
45112;PMS5003;30873;53.908;27.576;2023-07-31T05:25:31;26.7;24.4;17.2
45112;PMS5003;30873;53.908;27.576;2023-07-31T05:30:43;24.1;21.7;15.6
45112;PMS5003;30873;53.908;27.576;2023-07-31T05:35:43;25.2;23.4;16.3
45112;PMS5003;30873;53.908;27.576;2023-07-31T05:40:11;27.7;26.2;17.6
45112;PMS5003;30873;53.908;27.576;2023-07-31T05:45:11;24.9;22.6;15.3
45112;PMS5003;30873;53.908;27.576;2023-07-31T05:50:57;25.1;23.9;16.1
45112;PMS5003;30873;53.908;27.576;2023-07-31T05:55:43;25.3;22.8;15.4
45112;PMS5003;30873;53.908;27.576;2023-07-31T06:00:59;21;20.1;14.1
45112;PMS5003;30873;53.908;27.576;2023-07-31T06:05:45;18.1;17.1;10.9
45112;PMS5003;30873;53.908;27.576;2023-07-31T06:10:43;17.6;16.6;11.3
45112;PMS5003;30873;53.908;27.576;2023-07-31T06:15:11;19.3;17.3;11.5
45112;PMS5003;30873;53.908;27.576;2023-07-31T06:20:15;16.5;15.6;10.5
45112;PMS5003;30873;53.908;27.576;2023-07-31T06:25:55;19.6;18.3;12
45112;PMS5003;30873;53.908;27.576;2023-07-31T06:30:41;18.2;16.7;11.2
45112;PMS5003;30873;53.908;27.576;2023-07-31T06:35:29;14.3;13.3;9.7
45112;PMS5003;30873;53.908;27.576;2023-07-31T06:40:57;14.2;13.8;9.7
45112;PMS5003;30873;53.908;27.576;2023-07-31T06:45:57;12.5;11.6;8.7
45112;PMS5003;30873;53.908;27.576;2023-07-31T06:50:37;12.9;12;8.7
45112;PMS5003;30873;53.908;27.576;2023-07-31T06:55:25;19.3;18;12.7
45112;PMS5003;30873;53.908;27.576;2023-07-31T07:00:41;18.7;17.5;12
45112;PMS5003;30873;53.908;27.576;2023-07-31T07:05:41;14.7;13.9;9.6
45112;PMS5003;30873;53.908;27.576;2023-07-31T07:10:29;15.8;13.9;9.4
45112;PMS5003;30873;53.908;27.576;2023-07-31T07:15:11;17.9;16;11.4
45112;PMS5003;30873;53.908;27.576;2023-07-31T07:20:11;18.8;16.6;11.2
45112;PMS5003;30873;53.908;27.576;2023-07-31T07:25:25;20.2;18;12
45112;PMS5003;30873;53.908;27.576;2023-07-31T07:30:25;19.5;17.6;12.1
45112;PMS5003;30873;53.908;27.576;2023-07-31T07:35:53;21.8;19.8;13.3
45112;PMS5003;30873;53.908;27.576;2023-07-31T07:40:41;22.1;20;13.8
45112;PMS5003;30873;53.908;27.576;2023-07-31T07:45:43;19.8;18.3;12.5
45112;PMS5003;30873;53.908;27.576;2023-07-31T07:50:11;19;17.8;12
45112;PMS5003;30873;53.908;27.576;2023-07-31T07:55:15;19.5;17.9;12
45112;PMS5003;30873;53.908;27.576;2023-07-31T08:00:11;20.5;18.9;12.8
45112;PMS5003;30873;53.908;27.576;2023-07-31T08:05:25;20.4;18.9;13.5
45112;PMS5003;30873;53.908;27.576;2023-07-31T08:10:25;24.8;23;16.3
45112;PMS5003;30873;53.908;27.576;2023-07-31T08:15:45;24.9;23.9;16.6
45112;PMS5003;30873;53.908;27.576;2023-07-31T08:20:57;24.2;22.8;17
45112;PMS5003;30873;53.908;27.576;2023-07-31T08:25:25;23.6;21.7;16
45112;PMS5003;30873;53.908;27.576;2023-07-31T08:30:11;19.5;18.6;13.9
45112;PMS5003;30873;53.908;27.576;2023-07-31T08:35:41;18.9;17.2;12.4
45112;PMS5003;30873;53.908;27.576;2023-07-31T08:40:41;14.6;13.8;10.3
45112;PMS5003;30873;53.908;27.576;2023-07-31T08:45:29;14;13.3;9.8
45112;PMS5003;30873;53.908;27.576;2023-07-31T08:50:57;11.7;10.8;8.3
45112;PMS5003;30873;53.908;27.576;2023-07-31T08:55:45;12;11.3;8.2
45112;PMS5003;30873;53.908;27.576;2023-07-31T09:00:27;10.5;9.8;7.1
45112;PMS5003;30873;53.908;27.576;2023-07-31T09:05:15;10;9.3;6.9
45112;PMS5003;30873;53.908;27.576;2023-07-31T09:10:41;9.4;8.7;6.6
45112;PMS5003;30873;53.908;27.576;2023-07-31T09:15:45;9.2;8.3;5.9
45112;PMS5003;30873;53.908;27.576;2023-07-31T09:21:00;7.9;7.6;5.8
45112;PMS5003;30873;53.908;27.576;2023-07-31T09:25:15;8.5;7.9;5.9
45112;PMS5003;30873;53.908;27.576;2023-07-31T09:30:57;9.6;8.7;6.4
45112;PMS5003;30873;53.908;27.576;2023-07-31T09:35:13;9.7;8.8;6.4
45112;PMS5003;30873;53.908;27.576;2023-07-31T09:40:57;8.3;8.2;6.2
45112;PMS5003;30873;53.908;27.576;2023-07-31T09:45:41;8.9;8;5.9
45112;PMS5003;30873;53.908;27.576;2023-07-31T09:50:45;17.4;16.9;14.4
45112;PMS5003;30873;53.908;27.576;2023-07-31T09:55:43;8.5;7.7;6
45112;PMS5003;30873;53.908;27.576;2023-07-31T10:00:43;11.1;10.3;8.6
45112;PMS5003;30873;53.908;27.576;2023-07-31T10:05:30;13.2;12.7;10.2
45112;PMS5003;30873;53.908;27.576;2023-07-31T10:10:29;7.2;6.7;5
45112;PMS5003;30873;53.908;27.576;2023-07-31T10:15:59;8.1;7.8;5.6
45112;PMS5003;30873;53.908;27.576;2023-07-31T10:20:27;7.8;7.4;5.3
45112;PMS5003;30873;53.908;27.576;2023-07-31T10:25:59;6.5;6.4;4.8
45112;PMS5003;30873;53.908;27.576;2023-07-31T10:30:59;6.9;6.9;4.8
45112;PMS5003;30873;53.908;27.576;2023-07-31T10:35:27;7;6.1;4.6
45112;PMS5003;30873;53.908;27.576;2023-07-31T10:40:12;6.7;6.3;4.6
45112;PMS5003;30873;53.908;27.576;2023-07-31T10:45:30;8.7;8.1;5.9
45112;PMS5003;30873;53.908;27.576;2023-07-31T10:50:57;5.8;5.8;4.4
45112;PMS5003;30873;53.908;27.576;2023-07-31T10:55:30;9.8;9.2;7.2
45112;PMS5003;30873;53.908;27.576;2023-07-31T11:00:17;5.9;5.6;4
45112;PMS5003;30873;53.908;27.576;2023-07-31T11:05:59;6.3;6.1;4.1
45112;PMS5003;30873;53.908;27.576;2023-07-31T11:11:05;5.8;5.8;4.2
45112;PMS5003;30873;53.908;27.576;2023-07-31T11:15:27;6;5.9;4.3
45112;PMS5003;30873;53.908;27.576;2023-07-31T11:20:31;7.4;6.8;4.9
45112;PMS5003;30873;53.908;27.576;2023-07-31T11:25:43;7.3;6.6;4.8
45112;PMS5003;30873;53.908;27.576;2023-07-31T11:30:43;7.8;7.7;6.1
45112;PMS5003;30873;53.908;27.576;2023-07-31T11:35:30;14;12.9;10.4
45112;PMS5003;30873;53.908;27.576;2023-07-31T11:40:43;6.6;6.6;5.1
45112;PMS5003;30873;53.908;27.576;2023-07-31T11:45:29;7.1;6.7;4.9
45112;PMS5003;30873;53.908;27.576;2023-07-31T11:50:43;7.5;6.8;5.1
45112;PMS5003;30873;53.908;27.576;2023-07-31T11:55:27;6.5;6.1;4.7
45112;PMS5003;30873;53.908;27.576;2023-07-31T12:00:59;7.1;6.8;5
45112;PMS5003;30873;53.908;27.576;2023-07-31T12:05:17;6.6;6;4.6
45112;PMS5003;30873;53.908;27.576;2023-07-31T12:11:02;6.8;6.5;4.8
45112;PMS5003;30873;53.908;27.576;2023-07-31T12:15:30;7.7;7.1;5.4
45112;PMS5003;30873;53.908;27.576;2023-07-31T12:20:11;6.4;6.2;4.9
45112;PMS5003;30873;53.908;27.576;2023-07-31T12:25:39;5.8;5.6;4.2
45112;PMS5003;30873;53.908;27.576;2023-07-31T12:31:01;7.6;7.2;5.6
45112;PMS5003;30873;53.908;27.576;2023-07-31T12:35:34;7.9;7.5;5.9
45112;PMS5003;30873;53.908;27.576;2023-07-31T12:40:31;6.8;6.5;4.8
45112;PMS5003;30873;53.908;27.576;2023-07-31T12:46:01;7.6;7.4;5.1
45112;PMS5003;30873;53.908;27.576;2023-07-31T12:50:25;18;16.8;12.3
45112;PMS5003;30873;53.908;27.576;2023-07-31T12:55:27;7.8;6.9;4.9
45112;PMS5003;30873;53.908;27.576;2023-07-31T13:01:01;7.8;7.2;5.5
45112;PMS5003;30873;53.908;27.576;2023-07-31T13:05:11;8.8;7.5;5.4
45112;PMS5003;30873;53.908;27.576;2023-07-31T13:10:12;10;9.2;6.4
45112;PMS5003;30873;53.908;27.576;2023-07-31T13:15:45;10.6;9.6;6.9
45112;PMS5003;30873;53.908;27.576;2023-07-31T13:20:45;8.7;8.1;5.5
45112;PMS5003;30873;53.908;27.576;2023-07-31T13:25:29;9.2;8;5.2
45112;PMS5003;30873;53.908;27.576;2023-07-31T13:30:11;9.1;8.3;5.4
45112;PMS5003;30873;53.908;27.576;2023-07-31T13:36:01;8.7;8;5.8
45112;PMS5003;30873;53.908;27.576;2023-07-31T13:41:01;9.6;9;6.1
45112;PMS5003;30873;53.908;27.576;2023-07-31T13:45:29;13.5;12.2;8.3
45112;PMS5003;30873;53.908;27.576;2023-07-31T13:50:29;10.6;9.5;6.3
45112;PMS5003;30873;53.908;27.576;2023-07-31T13:56:01;11;9.3;6.6
45112;PMS5003;30873;53.908;27.576;2023-07-31T14:00:45;12.1;11.5;8.1
45112;PMS5003;30873;53.908;27.576;2023-07-31T14:05:15;10.3;9.7;6.8
45112;PMS5003;30873;53.908;27.576;2023-07-31T14:10:45;10.2;9.1;6.3
45112;PMS5003;30873;53.908;27.576;2023-07-31T14:15:45;10.2;9.7;6.7
45112;PMS5003;30873;53.908;27.576;2023-07-31T14:21:01;12;10.9;7
45112;PMS5003;30873;53.908;27.576;2023-07-31T14:25:29;11.6;9.6;6.7
45112;PMS5003;30873;53.908;27.576;2023-07-31T14:31:01;10.3;9.3;6
45112;PMS5003;30873;53.908;27.576;2023-07-31T14:35:15;12.3;10.6;7.9
45112;PMS5003;30873;53.908;27.576;2023-07-31T14:41:01;13.8;11.6;8.6
45112;PMS5003;30873;53.908;27.576;2023-07-31T14:45:29;14.3;12.4;8.3
45112;PMS5003;30873;53.908;27.576;2023-07-31T14:51:01;13;11.9;7.9
45112;PMS5003;30873;53.908;27.576;2023-07-31T14:56:01;13.6;12.4;7.9
45112;PMS5003;30873;53.908;27.576;2023-07-31T15:00:45;12.8;11.5;8.2
45112;PMS5003;30873;53.908;27.576;2023-07-31T15:05:29;15;13.4;8.4
45112;PMS5003;30873;53.908;27.576;2023-07-31T15:10:11;16.7;15.2;10.1
45112;PMS5003;30873;53.908;27.576;2023-07-31T15:16:01;18.6;16.2;10.4
45112;PMS5003;30873;53.908;27.576;2023-07-31T15:20:45;17.7;16.6;10.8
45112;PMS5003;30873;53.908;27.576;2023-07-31T15:25:15;17.7;15.6;10.1
45112;PMS5003;30873;53.908;27.576;2023-07-31T15:31:01;17.1;15.7;10.6
45112;PMS5003;30873;53.908;27.576;2023-07-31T15:36:01;16.2;15.1;10.1
45112;PMS5003;30873;53.908;27.576;2023-07-31T15:40:11;17.3;15.3;9.6
45112;PMS5003;30873;53.908;27.576;2023-07-31T15:45:29;18.1;16.1;10.3
45112;PMS5003;30873;53.908;27.576;2023-07-31T15:50:45;16.7;15.7;10.6
45112;PMS5003;30873;53.908;27.576;2023-07-31T15:55:45;16.6;15.4;10.4
45112;PMS5003;30873;53.908;27.576;2023-07-31T16:01:01;17.3;15.6;10.9
45112;PMS5003;30873;53.908;27.576;2023-07-31T16:05:11;16.2;14.4;10.2
45112;PMS5003;30873;53.908;27.576;2023-07-31T16:10:11;16.2;14.9;10.5
45112;PMS5003;30873;53.908;27.576;2023-07-31T16:15:27;17.1;15.2;10.1
45112;PMS5003;30873;53.908;27.576;2023-07-31T16:20:29;17.5;14.9;10.6
45112;PMS5003;30873;53.908;27.576;2023-07-31T16:26:01;12.1;11.3;8.3
45112;PMS5003;30873;53.908;27.576;2023-07-31T16:30:45;13.5;12.7;9.2
45112;PMS5003;30873;53.908;27.576;2023-07-31T16:36:01;13.3;12.8;9.3
45112;PMS5003;30873;53.908;27.576;2023-07-31T16:40:29;14.6;13.5;9.3
45112;PMS5003;30873;53.908;27.576;2023-07-31T16:45:11;15.7;13.9;9.9
45112;PMS5003;30873;53.908;27.576;2023-07-31T16:50:25;13.3;12.1;9.1
45112;PMS5003;30873;53.908;27.576;2023-07-31T16:55:29;11.7;11.3;8.2
45112;PMS5003;30873;53.908;27.576;2023-07-31T17:00:11;13;12.2;8.8
45112;PMS5003;30873;53.908;27.576;2023-07-31T17:05:45;12.4;11.6;8.3
45112;PMS5003;30873;53.908;27.576;2023-07-31T17:11:01;13.3;12.3;9.1
45112;PMS5003;30873;53.908;27.576;2023-07-31T17:15:29;13.8;13.3;10
45112;PMS5003;30873;53.908;27.576;2023-07-31T17:20:15;13.3;12;8.9
45112;PMS5003;30873;53.908;27.576;2023-07-31T17:26:01;11.9;11.1;7.8
45112;PMS5003;30873;53.908;27.576;2023-07-31T17:30:29;11.2;10.7;8.1
45112;PMS5003;30873;53.908;27.576;2023-07-31T17:35:41;12.8;11.4;8.4
45112;PMS5003;30873;53.908;27.576;2023-07-31T17:40:45;14.3;12.9;9.3
45112;PMS5003;30873;53.908;27.576;2023-07-31T17:45:45;13.2;12.4;8.3
45112;PMS5003;30873;53.908;27.576;2023-07-31T17:50:29;14;11.4;8.3
45112;PMS5003;30873;53.908;27.576;2023-07-31T17:55:47;14.9;12.8;9.2
45112;PMS5003;30873;53.908;27.576;2023-07-31T18:01:03;14.6;13.6;9
45112;PMS5003;30873;53.908;27.576;2023-07-31T18:06:03;19.7;18;12.3
45112;PMS5003;30873;53.908;27.576;2023-07-31T18:10:31;18.7;17.2;11.6
45112;PMS5003;30873;53.908;27.576;2023-07-31T18:15:11;15.6;14.2;9.2
45112;PMS5003;30873;53.908;27.576;2023-07-31T18:21:03;16.3;15;10.3
45112;PMS5003;30873;53.908;27.576;2023-07-31T18:25:59;15.3;14.6;10.4
45112;PMS5003;30873;53.908;27.576;2023-07-31T18:30:11;18.2;16.3;11.6
45112;PMS5003;30873;53.908;27.576;2023-07-31T18:35:45;17.5;16.5;11.3
45112;PMS5003;30873;53.908;27.576;2023-07-31T18:40:47;21.8;20;13.8
45112;PMS5003;30873;53.908;27.576;2023-07-31T18:46:03;19.2;17.2;12.3
45112;PMS5003;30873;53.908;27.576;2023-07-31T18:50:29;17.2;16.8;12.2
45112;PMS5003;30873;53.908;27.576;2023-07-31T18:56:03;20;16.6;12
45112;PMS5003;30873;53.908;27.576;2023-07-31T19:00:11;17.7;16.4;11.4
45112;PMS5003;30873;53.908;27.576;2023-07-31T19:06:03;18.1;16.2;11.9
45112;PMS5003;30873;53.908;27.576;2023-07-31T19:10:45;17.2;15.9;11.3
45112;PMS5003;30873;53.908;27.576;2023-07-31T19:15:43;19.1;15.7;11.6
45112;PMS5003;30873;53.908;27.576;2023-07-31T19:20:47;18.4;17.1;11.4
45112;PMS5003;30873;53.908;27.576;2023-07-31T19:25:45;18.5;17;12
45112;PMS5003;30873;53.908;27.576;2023-07-31T19:30:15;18;16.4;11.5
45112;PMS5003;30873;53.908;27.576;2023-07-31T19:35:11;19.1;16.8;12
45112;PMS5003;30873;53.908;27.576;2023-07-31T19:41:03;22;19;12.7
45112;PMS5003;30873;53.908;27.576;2023-07-31T19:45:25;22.5;20;13.1
45112;PMS5003;30873;53.908;27.576;2023-07-31T19:50:47;20.9;18.6;13.2
45112;PMS5003;30873;53.908;27.576;2023-07-31T19:56:03;21.5;19.7;13.4
45112;PMS5003;30873;53.908;27.576;2023-07-31T20:00:45;23.7;21.7;14.7
45112;PMS5003;30873;53.908;27.576;2023-07-31T20:05:11;27.3;25.1;16.6
45112;PMS5003;30873;53.908;27.576;2023-07-31T20:10:11;27.5;24.7;17.3
45112;PMS5003;30873;53.908;27.576;2023-07-31T20:15:47;25.3;23.3;15.2
45112;PMS5003;30873;53.908;27.576;2023-07-31T20:20:47;28;26.3;18.2
45112;PMS5003;30873;53.908;27.576;2023-07-31T20:25:32;28.4;26.3;17.8
45112;PMS5003;30873;53.908;27.576;2023-07-31T20:30:29;27.7;25.1;17.4
45112;PMS5003;30873;53.908;27.576;2023-07-31T20:35:31;27.9;25.5;16.3
45112;PMS5003;30873;53.908;27.576;2023-07-31T20:40:11;27.7;25.7;16.6
45112;PMS5003;30873;53.908;27.576;2023-07-31T20:45:11;28;25.7;17.1
45112;PMS5003;30873;53.908;27.576;2023-07-31T20:51:03;26.1;24;16.2
45112;PMS5003;30873;53.908;27.576;2023-07-31T20:55:17;27.8;24.8;16.4
45112;PMS5003;30873;53.908;27.576;2023-07-31T21:01:03;25.9;23.8;16.8
45112;PMS5003;30873;53.908;27.576;2023-07-31T21:05:15;27.1;23.4;15.4
45112;PMS5003;30873;53.908;27.576;2023-07-31T21:10:15;26.6;24;15.6
45112;PMS5003;30873;53.908;27.576;2023-07-31T21:15:45;28.8;25.3;16
45112;PMS5003;30873;53.908;27.576;2023-07-31T21:20:29;26.8;24.5;16.5
45112;PMS5003;30873;53.908;27.576;2023-07-31T21:25:32;25.6;23.1;15.4
45112;PMS5003;30873;53.908;27.576;2023-07-31T21:30:47;24.1;21.9;14.3
45112;PMS5003;30873;53.908;27.576;2023-07-31T21:36:03;23.1;20.8;13.7
45112;PMS5003;30873;53.908;27.576;2023-07-31T21:40:25;22.2;20.3;13.4
45112;PMS5003;30873;53.908;27.576;2023-07-31T21:45:11;21.9;19.9;13.1
45112;PMS5003;30873;53.908;27.576;2023-07-31T21:51:03;23;20.9;13.6
45112;PMS5003;30873;53.908;27.576;2023-07-31T21:55:29;23.2;19.6;13.1
45112;PMS5003;30873;53.908;27.576;2023-07-31T22:00:31;21.2;19.2;12.8
45112;PMS5003;30873;53.908;27.576;2023-07-31T22:05:47;21.2;19.1;13.1
45112;PMS5003;30873;53.908;27.576;2023-07-31T22:10:47;23.3;21.5;14.8
45112;PMS5003;30873;53.908;27.576;2023-07-31T22:15:29;23.9;20.8;14
45112;PMS5003;30873;53.908;27.576;2023-07-31T22:20:15;23.6;21.5;14.6
45112;PMS5003;30873;53.908;27.576;2023-07-31T22:26:03;24.9;22.2;14.2
45112;PMS5003;30873;53.908;27.576;2023-07-31T22:31:03;22.8;21;14
45112;PMS5003;30873;53.908;27.576;2023-07-31T22:35:11;24.9;21.8;14
45112;PMS5003;30873;53.908;27.576;2023-07-31T22:40:25;21.9;19.9;13.3
45112;PMS5003;30873;53.908;27.576;2023-07-31T22:46:03;21.3;19.3;12.6
45112;PMS5003;30873;53.908;27.576;2023-07-31T22:50:31;19.4;17.7;11.6
45112;PMS5003;30873;53.908;27.576;2023-07-31T22:55:11;20.1;17.2;11.1
45112;PMS5003;30873;53.908;27.576;2023-07-31T23:00:45;17.1;16.3;10.7
45112;PMS5003;30873;53.908;27.576;2023-07-31T23:05:47;16.6;15.2;10.2
45112;PMS5003;30873;53.908;27.576;2023-07-31T23:11:03;19.1;15.5;10.7
45112;PMS5003;30873;53.908;27.576;2023-07-31T23:15:33;16.9;15;10.1
45112;PMS5003;30873;53.908;27.576;2023-07-31T23:21:03;18.7;16.8;11.1
45112;PMS5003;30873;53.908;27.576;2023-07-31T23:25:45;18.8;18.1;11.1
45112;PMS5003;30873;53.908;27.576;2023-07-31T23:31:03;17.5;15.5;10.4
45112;PMS5003;30873;53.908;27.576;2023-07-31T23:35:45;18.9;15.9;10.1
45112;PMS5003;30873;53.908;27.576;2023-07-31T23:40:47;19.5;17;10.7
45112;PMS5003;30873;53.908;27.576;2023-07-31T23:45:14;20;18.7;12.4
45112;PMS5003;30873;53.908;27.576;2023-07-31T23:50:45;21.1;19.6;12.6
45112;PMS5003;30873;53.908;27.576;2023-07-31T23:55:11;22.6;19.7;12.6
